createdAt,value
2018-06-10T00:02:24.994Z,20.80
2018-06-10T00:04:56.018Z,20.80
2018-06-10T00:09:56.620Z,20.70
2018-06-10T00:12:27.129Z,20.70
2018-06-10T00:14:57.630Z,20.70
2018-06-10T00:17:28.212Z,20.70
2018-06-10T00:19:58.642Z,20.80
2018-06-10T00:22:29.376Z,20.80
2018-06-10T00:24:59.805Z,20.70
2018-06-10T00:27:30.214Z,20.80
2018-06-10T00:30:01.313Z,20.80
2018-06-10T00:32:31.692Z,20.70
2018-06-10T00:35:03.096Z,20.70
2018-06-10T00:37:33.582Z,20.70
2018-06-10T00:40:04.041Z,20.70
2018-06-10T00:42:34.535Z,20.60
2018-06-10T00:45:05.287Z,20.60
2018-06-10T00:47:35.853Z,20.50
2018-06-10T00:50:06.456Z,20.50
2018-06-10T00:52:37.183Z,20.50
2018-06-10T00:55:08.010Z,20.50
2018-06-10T00:57:38.580Z,20.50
2018-06-10T01:00:09.701Z,20.50
2018-06-10T01:02:41.143Z,20.50
2018-06-10T01:05:11.700Z,20.40
2018-06-10T01:07:42.341Z,20.40
2018-06-10T01:10:12.822Z,20.30
2018-06-10T01:15:13.955Z,20.30
2018-06-10T01:17:44.967Z,20.20
2018-06-10T01:20:15.430Z,20.20
2018-06-10T01:22:45.995Z,20.10
2018-06-10T01:25:16.436Z,20.10
2018-06-10T01:27:47.014Z,20.10
2018-06-10T01:30:17.584Z,20.20
2018-06-10T01:32:47.902Z,20.20
2018-06-10T01:35:18.430Z,20.20
2018-06-10T01:37:48.868Z,20.20
2018-06-10T01:40:19.444Z,20.20
2018-06-10T01:42:49.829Z,20.20
2018-06-10T01:47:50.286Z,20.20
2018-06-10T01:50:20.776Z,20.20
2018-06-10T01:52:51.193Z,20.20
2018-06-10T01:55:21.687Z,20.20
2018-06-10T01:57:52.292Z,20.20
2018-06-10T02:00:42.687Z,20.20
2018-06-10T02:03:13.220Z,20.20
2018-06-10T02:05:43.646Z,20.20
2018-06-10T02:08:14.110Z,20.20
2018-06-10T02:10:44.748Z,20.20
2018-06-10T02:13:15.173Z,20.20
2018-06-10T02:15:45.638Z,20.10
2018-06-10T02:18:16.066Z,20.10
2018-06-10T02:20:46.496Z,20.10
2018-06-10T02:23:16.962Z,20.10
2018-06-10T02:25:47.486Z,20.10
2018-06-10T02:28:18.038Z,20.00
2018-06-10T02:30:48.532Z,19.90
2018-06-10T02:33:18.941Z,19.80
2018-06-10T02:35:49.467Z,19.80
2018-06-10T02:38:19.951Z,19.70
2018-06-10T02:40:50.432Z,19.80
2018-06-10T02:43:20.868Z,19.70
2018-06-10T02:45:51.332Z,19.70
2018-06-10T02:48:21.766Z,19.70
2018-06-10T02:50:52.450Z,19.70
2018-06-10T02:53:22.902Z,19.70
2018-06-10T02:55:53.449Z,19.70
2018-06-10T02:58:24.233Z,19.70
2018-06-10T03:00:54.726Z,19.70
2018-06-10T03:03:25.223Z,19.80
2018-06-10T03:05:55.893Z,19.80
2018-06-10T03:08:27.447Z,19.80
2018-06-10T03:10:57.938Z,19.80
2018-06-10T03:13:28.358Z,19.80
2018-06-10T03:15:58.784Z,19.80
2018-06-10T03:18:29.263Z,19.80
2018-06-10T03:20:59.725Z,19.70
2018-06-10T03:23:30.150Z,19.80
2018-06-10T03:26:00.628Z,19.70
2018-06-10T03:28:31.081Z,19.70
2018-06-10T03:31:01.594Z,19.70
2018-06-10T03:33:32.078Z,19.70
2018-06-10T03:36:02.589Z,19.70
2018-06-10T03:38:33.058Z,19.70
2018-06-10T03:41:03.624Z,19.70
2018-06-10T03:43:34.176Z,19.70
2018-06-10T03:46:04.669Z,19.70
2018-06-10T03:48:35.070Z,19.70
2018-06-10T03:51:05.817Z,19.70
2018-06-10T03:53:36.244Z,19.60
2018-06-10T03:56:06.763Z,19.60
2018-06-10T03:58:37.288Z,19.70
2018-06-10T04:01:07.970Z,19.70
2018-06-10T04:03:38.513Z,19.70
2018-06-10T04:06:08.980Z,19.80
2018-06-10T04:08:39.603Z,19.80
2018-06-10T04:11:10.656Z,19.80
2018-06-10T04:13:41.061Z,19.80
2018-06-10T04:18:42.067Z,19.90
2018-06-10T04:21:12.548Z,19.90
2018-06-10T04:26:13.149Z,20.00
2018-06-10T04:28:43.616Z,20.00
2018-06-10T04:31:14.116Z,20.00
2018-06-10T04:33:44.516Z,20.00
2018-06-10T04:36:14.897Z,20.00
2018-06-10T04:38:45.355Z,20.10
2018-06-10T04:41:17.374Z,20.10
2018-06-10T04:43:47.742Z,20.20
2018-06-10T04:46:18.114Z,20.30
2018-06-10T04:48:48.512Z,20.40
2018-06-10T04:51:19.005Z,20.50
2018-06-10T04:53:49.523Z,20.60
2018-06-10T04:56:20.129Z,20.90
2018-06-10T04:58:50.652Z,21.10
2018-06-10T05:01:21.157Z,21.40
2018-06-10T05:03:51.650Z,21.70
2018-06-10T05:08:53.573Z,22.30
2018-06-10T05:11:24.019Z,22.50
2018-06-10T05:13:54.480Z,22.70
2018-06-10T05:16:24.850Z,22.90
2018-06-10T05:18:55.287Z,23.10
2018-06-10T05:21:25.821Z,23.40
2018-06-10T05:23:56.433Z,23.60
2018-06-10T05:26:26.991Z,23.70
2018-06-10T05:28:57.447Z,23.90
2018-06-10T05:31:27.967Z,24.00
2018-06-10T05:33:58.479Z,24.10
2018-06-10T05:36:29.045Z,24.00
2018-06-10T05:38:59.513Z,24.20
2018-06-10T05:41:31.624Z,24.40
2018-06-10T05:44:02.824Z,24.60
2018-06-10T05:46:34.378Z,24.80
2018-06-10T05:49:04.975Z,25.00
2018-06-10T05:51:35.836Z,25.20
2018-06-10T05:54:06.265Z,25.30
2018-06-10T05:56:36.765Z,25.30
2018-06-10T05:59:10.154Z,25.40
2018-06-10T06:01:50.008Z,25.50
2018-06-10T06:04:53.332Z,25.70
2018-06-10T06:16:09.470Z,25.80
2018-06-10T06:19:14.374Z,25.80
2018-06-10T06:22:01.508Z,26.10
2018-06-10T06:24:39.564Z,26.20
2018-06-10T06:27:18.016Z,26.30
2018-06-10T06:32:55.639Z,26.60
2018-06-10T06:35:38.129Z,26.60
2018-06-10T06:38:27.682Z,26.60
2018-06-10T06:41:09.467Z,26.50
2018-06-10T06:43:46.163Z,26.70
2018-06-10T06:46:26.683Z,26.80
2018-06-10T06:49:12.082Z,26.80
2018-06-10T06:51:49.065Z,27.00
2018-06-10T06:54:29.387Z,27.00
2018-06-10T06:57:07.357Z,27.00
2018-06-10T07:00:01.112Z,27.10
2018-06-10T07:02:52.591Z,27.30
2018-06-10T07:05:29.617Z,27.30
2018-06-10T07:08:16.855Z,27.30
2018-06-10T07:11:38.862Z,27.10
2018-06-10T07:14:30.041Z,27.10
2018-06-10T07:17:14.357Z,27.10
2018-06-10T07:23:01.513Z,26.90
2018-06-10T07:25:58.682Z,26.90
2018-06-10T07:28:54.096Z,26.90
2018-06-10T07:31:52.655Z,26.80
2018-06-10T07:35:10.048Z,26.80
2018-06-10T07:38:02.226Z,26.50
2018-06-10T07:40:49.980Z,26.30
2018-06-10T07:44:00.345Z,26.20
2018-06-10T07:49:42.383Z,25.70
2018-06-10T07:52:14.743Z,25.40
2018-06-10T07:55:21.362Z,25.40
2018-06-10T07:58:31.294Z,25.40
2018-06-10T08:01:35.306Z,25.60
2018-06-10T08:07:52.885Z,25.80
2018-06-10T08:10:53.260Z,26.00
2018-06-10T08:13:36.224Z,26.00
2018-06-10T08:16:39.079Z,26.10
2018-06-10T08:22:43.290Z,26.10
2018-06-10T08:29:42.589Z,25.80
2018-06-10T08:38:14.634Z,25.60
2018-06-10T08:41:16.693Z,25.60
2018-06-10T08:44:58.537Z,25.90
2018-06-10T08:47:49.121Z,26.00
2018-06-10T08:56:31.623Z,26.10
2018-06-10T08:59:29.123Z,26.30
2018-06-10T09:02:47.906Z,26.30
2018-06-10T09:08:50.344Z,26.70
2018-06-10T09:11:57.717Z,26.80
2018-06-10T09:15:18.973Z,26.90
2018-06-10T09:18:02.981Z,26.90
2018-06-10T09:20:55.847Z,26.90
2018-06-10T09:23:46.400Z,26.90
2018-06-10T09:26:21.058Z,26.90
2018-06-10T09:29:16.986Z,26.90
2018-06-10T09:35:41.082Z,26.70
2018-06-10T09:40:00.125Z,26.50
2018-06-10T09:46:48.279Z,26.40
2018-06-10T09:50:10.173Z,26.40
2018-06-10T09:52:59.621Z,26.30
2018-06-10T09:55:39.259Z,26.30
2018-06-10T09:58:14.330Z,26.40
2018-06-10T10:01:02.357Z,26.60
2018-06-10T10:03:47.889Z,26.70
2018-06-10T10:06:28.488Z,26.90
2018-06-10T10:09:07.376Z,27.00
2018-06-10T10:12:17.353Z,27.20
2018-06-10T10:15:07.060Z,27.30
2018-06-10T10:17:48.510Z,27.40
2018-06-10T10:20:48.139Z,27.40
2018-06-10T10:23:46.838Z,27.60
2018-06-10T10:29:04.665Z,27.90
2018-06-10T10:31:56.576Z,27.90
2018-06-10T10:34:40.612Z,27.80
2018-06-10T10:37:31.893Z,27.70
2018-06-10T10:40:20.516Z,27.60
2018-06-10T10:43:18.382Z,27.50
2018-06-10T10:48:44.068Z,27.20
2018-06-10T10:54:59.737Z,27.20
2018-06-10T12:21:12.429Z,27.60
2018-06-10T12:23:45.491Z,28.40
2018-06-10T12:26:17.045Z,28.40
2018-06-10T12:28:53.812Z,28.40
2018-06-10T12:31:34.984Z,28.30
2018-06-10T12:34:11.434Z,28.20
2018-06-10T12:36:47.410Z,28.20
2018-06-10T12:39:20.175Z,28.30
2018-06-10T12:41:52.500Z,28.40
2018-06-10T12:44:24.818Z,28.60
2018-06-10T12:46:57.388Z,28.60
2018-06-10T12:49:30.343Z,28.70
2018-06-10T12:52:02.580Z,28.80
2018-06-10T12:54:33.083Z,28.80
2018-06-10T12:57:06.688Z,28.80
2018-06-10T12:59:38.957Z,28.80
2018-06-10T13:02:11.272Z,28.90
2018-06-10T13:04:45.059Z,29.00
2018-06-10T13:07:19.526Z,29.10
2018-06-10T13:09:53.121Z,29.00
2018-06-10T13:12:25.464Z,29.10
2018-06-10T13:14:59.351Z,29.10
2018-06-10T13:17:30.412Z,29.20
2018-06-10T13:20:02.260Z,29.30
2018-06-10T13:22:33.295Z,29.30
2018-06-10T13:25:03.856Z,29.30
2018-06-10T13:27:34.419Z,29.30
2018-06-10T13:30:05.211Z,29.20
2018-06-10T13:32:36.360Z,29.20
2018-06-10T13:35:08.098Z,29.20
2018-06-10T13:37:39.445Z,29.10
2018-06-10T13:40:10.380Z,29.20
2018-06-10T13:42:40.877Z,29.30
2018-06-10T13:45:11.432Z,29.10
2018-06-10T13:50:12.019Z,29.10
2018-06-10T13:52:42.539Z,29.10
2018-06-10T13:55:13.075Z,28.90
2018-06-10T13:57:43.529Z,28.80
2018-06-10T14:00:14.003Z,28.60
2018-06-10T14:02:44.496Z,28.60
2018-06-10T14:05:18.477Z,28.60
2018-06-10T14:07:49.733Z,28.60
2018-06-10T14:10:20.294Z,28.60
2018-06-10T14:12:50.969Z,28.50
2018-06-10T14:15:26.577Z,28.50
2018-06-10T14:17:59.994Z,28.50
2018-06-10T14:20:31.861Z,28.50
2018-06-10T14:23:02.783Z,28.50
2018-06-10T14:25:33.381Z,28.50
2018-06-10T14:28:03.824Z,28.50
2018-06-10T14:30:34.912Z,28.50
2018-06-10T14:33:05.741Z,28.40
2018-06-10T14:35:36.532Z,28.30
2018-06-10T14:38:07.307Z,28.30
2018-06-10T14:40:37.990Z,28.30
2018-06-10T14:43:08.926Z,28.30
2018-06-10T14:45:39.340Z,28.40
2018-06-10T14:48:11.876Z,28.50
2018-06-10T14:50:44.141Z,28.70
2018-06-10T14:53:15.900Z,28.80
2018-06-10T14:55:46.545Z,28.80
2018-06-10T14:58:17.488Z,28.80
2018-06-10T15:00:48.993Z,28.90
2018-06-10T15:03:20.559Z,28.90
2018-06-10T15:05:51.664Z,28.90
2018-06-10T15:08:22.190Z,29.00
2018-06-10T15:10:53.342Z,29.10
2018-06-10T15:13:30.665Z,29.10
2018-06-10T15:16:01.833Z,29.10
2018-06-10T15:18:32.239Z,29.20
2018-06-10T15:21:02.831Z,29.10
2018-06-10T15:23:33.299Z,29.00
2018-06-10T15:26:03.812Z,29.00
2018-06-10T15:28:35.191Z,29.00
2018-06-10T15:31:05.805Z,29.00
2018-06-10T15:33:36.277Z,29.00
2018-06-10T15:36:06.681Z,29.10
2018-06-10T15:38:37.097Z,29.10
2018-06-10T15:41:07.523Z,29.10
2018-06-10T15:43:38.053Z,29.10
2018-06-10T15:46:08.566Z,29.20
2018-06-10T15:48:39.276Z,29.20
2018-06-10T15:51:09.737Z,29.30
2018-06-10T15:56:10.998Z,29.40
2018-06-10T15:58:41.520Z,29.40
2018-06-10T16:01:11.945Z,29.40
2018-06-10T16:03:42.674Z,29.40
2018-06-10T16:06:13.205Z,29.40
2018-06-10T16:08:44.498Z,29.30
2018-06-10T16:11:15.091Z,29.40
2018-06-10T16:13:45.592Z,29.40
2018-06-10T16:16:16.021Z,29.40
2018-06-10T16:18:46.432Z,29.40
2018-06-10T16:21:16.931Z,29.40
2018-06-10T16:23:47.996Z,29.40
2018-06-10T16:26:18.640Z,29.40
2018-06-10T16:28:49.105Z,29.40
2018-06-10T16:31:19.500Z,29.30
2018-06-10T16:33:50.005Z,29.40
2018-06-10T16:36:20.835Z,29.40
2018-06-10T16:38:51.621Z,29.50
2018-06-10T16:41:22.159Z,29.50
2018-06-10T16:43:52.656Z,29.40
2018-06-10T16:46:23.130Z,29.50
2018-06-10T16:51:24.275Z,29.50
2018-06-10T16:53:54.745Z,29.50
2018-06-10T16:56:25.413Z,29.50
2018-06-10T16:58:55.940Z,29.40
2018-06-10T17:01:26.492Z,29.20
2018-06-10T17:03:57.068Z,29.10
2018-06-10T17:06:27.564Z,29.00
2018-06-10T17:08:58.076Z,28.90
2018-06-10T17:11:28.491Z,28.80
2018-06-10T17:14:01.103Z,28.80
2018-06-10T17:16:36.345Z,28.80
2018-06-10T17:19:07.575Z,28.80
2018-06-10T17:21:38.110Z,28.70
2018-06-10T17:24:08.554Z,28.50
2018-06-10T17:26:39.080Z,28.20
2018-06-10T17:29:11.193Z,28.10
2018-06-10T17:31:41.603Z,28.00
2018-06-10T17:34:13.093Z,28.00
2018-06-10T17:36:43.546Z,28.00
2018-06-10T17:39:14.881Z,27.90
2018-06-10T17:41:45.581Z,27.90
2018-06-10T17:44:15.983Z,27.90
2018-06-10T17:46:46.516Z,27.80
2018-06-10T17:49:16.972Z,27.60
2018-06-10T17:51:47.423Z,27.40
2018-06-10T17:54:18.003Z,27.30
2018-06-10T17:56:49.135Z,27.30
2018-06-10T17:59:19.755Z,27.30
2018-06-10T18:01:50.704Z,27.30
2018-06-10T18:04:21.603Z,27.30
2018-06-10T18:06:52.525Z,27.20
2018-06-10T18:09:24.136Z,27.10
2018-06-10T18:11:54.577Z,27.00
2018-06-10T18:14:25.391Z,26.90
2018-06-10T18:16:57.319Z,26.80
2018-06-10T18:19:27.892Z,26.80
2018-06-10T18:21:59.405Z,26.80
2018-06-10T18:24:30.032Z,26.70
2018-06-10T18:27:00.407Z,26.70
2018-06-10T18:29:30.829Z,26.60
2018-06-10T18:32:01.330Z,26.60
2018-06-10T18:34:31.821Z,26.60
2018-06-10T18:37:02.468Z,26.50
2018-06-10T18:39:32.945Z,26.50
2018-06-10T18:42:03.451Z,26.50
2018-06-10T18:44:34.825Z,26.50
2018-06-10T18:47:05.305Z,26.50
2018-06-10T18:49:35.904Z,26.50
2018-06-10T18:52:06.274Z,26.50
2018-06-10T18:54:36.826Z,26.50
2018-06-10T18:57:07.280Z,26.50
2018-06-10T18:59:37.756Z,26.50
2018-06-10T19:02:08.223Z,26.50
2018-06-10T19:04:38.883Z,26.50
2018-06-10T19:07:09.279Z,26.50
2018-06-10T19:09:39.818Z,26.50
2018-06-10T19:12:10.228Z,26.50
2018-06-10T19:17:11.248Z,26.40
2018-06-10T19:19:41.686Z,26.40
2018-06-10T19:22:12.090Z,26.30
2018-06-10T19:24:42.469Z,26.30
2018-06-10T19:27:12.953Z,26.30
2018-06-10T19:29:43.959Z,26.20
2018-06-10T19:32:14.420Z,26.20
2018-06-10T19:34:44.943Z,26.00
2018-06-10T19:37:15.608Z,26.00
2018-06-10T19:39:46.044Z,25.90
2018-06-10T19:42:16.765Z,25.80
2018-06-10T19:44:47.315Z,25.80
2018-06-10T19:47:17.859Z,25.70
2018-06-10T19:49:49.032Z,25.70
2018-06-10T19:52:19.446Z,25.60
2018-06-10T19:54:49.855Z,25.60
2018-06-10T19:57:20.340Z,25.50
2018-06-10T19:59:50.978Z,25.50
2018-06-10T20:02:21.398Z,25.50
2018-06-10T20:04:51.901Z,25.40
2018-06-10T20:07:22.392Z,25.40
2018-06-10T20:09:52.792Z,25.40
2018-06-10T20:12:23.268Z,25.40
2018-06-10T20:14:53.728Z,25.30
2018-06-10T20:17:24.186Z,25.30
2018-06-10T20:19:54.719Z,25.30
2018-06-10T20:22:25.158Z,25.20
2018-06-10T20:24:55.629Z,25.20
2018-06-10T20:27:26.284Z,25.10
2018-06-10T20:29:56.815Z,25.00
2018-06-10T20:32:27.185Z,25.00
2018-06-10T20:34:57.617Z,24.80
2018-06-10T20:37:28.084Z,24.60
2018-06-10T20:39:58.524Z,24.60
2018-06-10T20:42:29.042Z,24.50
2018-06-10T20:44:59.469Z,24.50
2018-06-10T20:47:29.819Z,24.40
2018-06-10T20:50:00.332Z,24.40
2018-06-10T20:52:31.383Z,24.40
2018-06-10T20:55:03.344Z,24.30
2018-06-10T20:57:34.562Z,24.30
2018-06-10T21:00:05.049Z,24.30
2018-06-10T21:02:35.539Z,24.20
2018-06-10T21:05:05.998Z,24.00
2018-06-10T21:07:36.469Z,23.80
2018-06-10T21:10:06.981Z,23.80
2018-06-10T21:12:37.294Z,23.70
2018-06-10T21:15:07.685Z,23.70
2018-06-10T21:17:38.079Z,23.70
2018-06-10T21:20:08.529Z,23.70
2018-06-10T21:22:38.985Z,23.70
2018-06-10T21:25:09.456Z,23.80
2018-06-10T21:27:40.066Z,23.70
2018-06-10T21:30:10.541Z,23.80
2018-06-10T21:32:40.999Z,23.80
2018-06-10T21:35:11.380Z,23.80
2018-06-10T21:37:41.804Z,23.90
2018-06-10T21:40:12.236Z,23.90
2018-06-10T21:42:42.729Z,23.90
2018-06-10T21:45:13.041Z,23.90
2018-06-10T21:47:43.480Z,23.90
2018-06-10T21:50:13.892Z,23.90
2018-06-10T21:52:44.372Z,23.90
2018-06-10T21:55:14.801Z,24.00
2018-06-10T21:57:45.229Z,24.00
2018-06-10T22:00:27.542Z,24.00
2018-06-10T22:02:57.977Z,24.00
2018-06-10T22:05:28.401Z,24.00
2018-06-10T22:07:58.874Z,24.00
2018-06-10T22:10:29.227Z,23.90
2018-06-10T22:12:59.720Z,23.90
2018-06-10T22:15:30.129Z,23.90
2018-06-10T22:20:31.485Z,23.80
2018-06-10T22:23:01.879Z,23.70
2018-06-10T22:25:32.325Z,23.70
2018-06-10T22:28:02.966Z,23.60
2018-06-10T22:30:33.419Z,23.50
2018-06-10T22:33:03.814Z,23.40
2018-06-10T22:35:34.222Z,23.40
2018-06-10T22:38:04.659Z,23.40
2018-06-10T22:40:35.105Z,23.30
2018-06-10T22:43:05.529Z,23.30
2018-06-10T22:45:36.004Z,23.30
2018-06-10T22:48:06.532Z,23.20
2018-06-10T22:50:36.922Z,23.20
2018-06-10T22:53:37.977Z,23.30
2018-06-10T22:56:08.420Z,23.20
2018-06-10T22:58:38.848Z,23.10
2018-06-10T23:01:09.252Z,23.10
2018-06-10T23:03:39.671Z,22.90
2018-06-10T23:06:10.057Z,22.70
2018-06-10T23:08:40.490Z,22.70
2018-06-10T23:11:10.894Z,22.60
2018-06-10T23:13:41.334Z,22.60
2018-06-10T23:16:11.743Z,22.60
2018-06-10T23:18:42.193Z,22.60
2018-06-10T23:21:12.646Z,22.60
2018-06-10T23:23:43.116Z,22.60
2018-06-10T23:26:13.519Z,22.60
2018-06-10T23:28:43.906Z,22.60
2018-06-10T23:31:14.389Z,22.60
2018-06-10T23:33:44.920Z,22.60
2018-06-10T23:36:15.453Z,22.60
2018-06-10T23:38:45.900Z,22.40
2018-06-10T23:41:17.176Z,22.40
2018-06-10T23:43:47.641Z,22.40
2018-06-10T23:46:18.114Z,22.40
2018-06-10T23:48:48.570Z,22.40
2018-06-10T23:51:19.003Z,22.40
2018-06-10T23:53:49.407Z,22.40
2018-06-10T23:56:19.833Z,22.40
2018-06-10T23:58:50.212Z,22.40
